sensor_id;sensor_type;location;lat;lon;timestamp;temperature;humidity
64961;SHT31;51487;52.266;10.542;2023-02-01T00:01:59;5.58;80.45
64961;SHT31;51487;52.266;10.542;2023-02-01T00:04:25;5.62;80.69
64961;SHT31;51487;52.266;10.542;2023-02-01T00:06:51;5.62;80.68
64961;SHT31;51487;52.266;10.542;2023-02-01T00:09:17;5.57;80.78
64961;SHT31;51487;52.266;10.542;2023-02-01T00:11:42;5.61;80.72
64961;SHT31;51487;52.266;10.542;2023-02-01T00:14:08;5.58;80.99
64961;SHT31;51487;52.266;10.542;2023-02-01T00:16:33;5.50;81.07
64961;SHT31;51487;52.266;10.542;2023-02-01T00:19:09;5.47;81.16
64961;SHT31;51487;52.266;10.542;2023-02-01T00:21:34;5.52;81.12
64961;SHT31;51487;52.266;10.542;2023-02-01T00:24:00;5.47;81.11
64961;SHT31;51487;52.266;10.542;2023-02-01T00:26:40;5.46;81.07
64961;SHT31;51487;52.266;10.542;2023-02-01T00:29:14;5.46;81.13
64961;SHT31;51487;52.266;10.542;2023-02-01T00:31:41;5.50;81.17
64961;SHT31;51487;52.266;10.542;2023-02-01T00:34:12;5.51;81.18
64961;SHT31;51487;52.266;10.542;2023-02-01T00:36:38;5.52;81.15
64961;SHT31;51487;52.266;10.542;2023-02-01T00:39:04;5.44;81.55
64961;SHT31;51487;52.266;10.542;2023-02-01T00:41:30;5.48;81.50
64961;SHT31;51487;52.266;10.542;2023-02-01T00:43:55;5.48;81.39
64961;SHT31;51487;52.266;10.542;2023-02-01T00:46:21;5.48;81.59
64961;SHT31;51487;52.266;10.542;2023-02-01T00:48:48;5.44;81.43
64961;SHT31;51487;52.266;10.542;2023-02-01T00:51:20;5.41;81.65
64961;SHT31;51487;52.266;10.542;2023-02-01T00:53:46;5.40;81.87
64961;SHT31;51487;52.266;10.542;2023-02-01T00:56:12;5.36;82.07
64961;SHT31;51487;52.266;10.542;2023-02-01T00:58:38;5.40;82.20
64961;SHT31;51487;52.266;10.542;2023-02-01T01:01:20;5.40;82.32
64961;SHT31;51487;52.266;10.542;2023-02-01T01:03:54;5.34;82.57
64961;SHT31;51487;52.266;10.542;2023-02-01T01:06:24;5.36;82.68
64961;SHT31;51487;52.266;10.542;2023-02-01T01:08:55;5.34;82.73
64961;SHT31;51487;52.266;10.542;2023-02-01T01:11:25;5.30;82.84
64961;SHT31;51487;52.266;10.542;2023-02-01T01:13:54;5.30;82.98
64961;SHT31;51487;52.266;10.542;2023-02-01T01:16:22;5.31;83.09
64961;SHT31;51487;52.266;10.542;2023-02-01T01:18:48;5.19;83.17
64961;SHT31;51487;52.266;10.542;2023-02-01T01:21:16;5.26;83.39
64961;SHT31;51487;52.266;10.542;2023-02-01T01:23:44;5.22;83.34
64961;SHT31;51487;52.266;10.542;2023-02-01T01:26:25;5.29;83.16
64961;SHT31;51487;52.266;10.542;2023-02-01T01:28:52;5.30;83.27
64961;SHT31;51487;52.266;10.542;2023-02-01T01:31:19;5.24;83.32
64961;SHT31;51487;52.266;10.542;2023-02-01T01:33:49;5.26;83.20
64961;SHT31;51487;52.266;10.542;2023-02-01T01:36:16;5.30;82.97
64961;SHT31;51487;52.266;10.542;2023-02-01T01:38:41;5.26;83.12
64961;SHT31;51487;52.266;10.542;2023-02-01T01:41:13;5.24;83.41
64961;SHT31;51487;52.266;10.542;2023-02-01T01:44:01;5.27;83.18
64961;SHT31;51487;52.266;10.542;2023-02-01T01:46:36;5.36;82.77
64961;SHT31;51487;52.266;10.542;2023-02-01T01:49:16;5.39;82.73
64961;SHT31;51487;52.266;10.542;2023-02-01T01:52:00;5.40;82.49
64961;SHT31;51487;52.266;10.542;2023-02-01T01:54:40;5.40;82.52
64961;SHT31;51487;52.266;10.542;2023-02-01T01:57:18;5.48;82.48
64961;SHT31;51487;52.266;10.542;2023-02-01T02:00:00;5.41;82.79
64961;SHT31;51487;52.266;10.542;2023-02-01T02:02:27;5.33;82.89
64961;SHT31;51487;52.266;10.542;2023-02-01T02:04:52;5.37;82.86
64961;SHT31;51487;52.266;10.542;2023-02-01T02:07:26;5.27;83.23
64961;SHT31;51487;52.266;10.542;2023-02-01T02:09:53;5.29;82.95
64961;SHT31;51487;52.266;10.542;2023-02-01T02:12:19;5.27;83.09
64961;SHT31;51487;52.266;10.542;2023-02-01T02:14:45;5.26;83.15
64961;SHT31;51487;52.266;10.542;2023-02-01T02:24:03;5.16;83.42
64961;SHT31;51487;52.266;10.542;2023-02-01T02:27:05;5.18;83.51
64961;SHT31;51487;52.266;10.542;2023-02-01T02:38:39;5.23;83.54
64961;SHT31;51487;52.266;10.542;2023-02-01T02:41:20;5.16;83.62
64961;SHT31;51487;52.266;10.542;2023-02-01T02:44:27;5.16;83.78
64961;SHT31;51487;52.266;10.542;2023-02-01T02:47:52;5.13;83.76
64961;SHT31;51487;52.266;10.542;2023-02-01T02:50:50;5.16;83.63
64961;SHT31;51487;52.266;10.542;2023-02-01T02:54:52;5.13;83.66
64961;SHT31;51487;52.266;10.542;2023-02-01T02:57:10;5.22;83.48
64961;SHT31;51487;52.266;10.542;2023-02-01T02:59:59;5.16;83.67
64961;SHT31;51487;52.266;10.542;2023-02-01T03:02:46;5.19;83.43
64961;SHT31;51487;52.266;10.542;2023-02-01T03:05:37;5.22;83.49
64961;SHT31;51487;52.266;10.542;2023-02-01T03:08:22;5.24;83.37
64961;SHT31;51487;52.266;10.542;2023-02-01T03:11:01;5.20;83.37
64961;SHT31;51487;52.266;10.542;2023-02-01T03:16:35;5.27;83.12
64961;SHT31;51487;52.266;10.542;2023-02-01T03:22:07;5.31;83.13
64961;SHT31;51487;52.266;10.542;2023-02-01T03:24:42;5.24;83.49
64961;SHT31;51487;52.266;10.542;2023-02-01T03:32:44;5.30;83.20
64961;SHT31;51487;52.266;10.542;2023-02-01T03:35:38;5.34;83.10
64961;SHT31;51487;52.266;10.542;2023-02-01T03:40:51;5.31;82.94
64961;SHT31;51487;52.266;10.542;2023-02-01T03:43:20;5.29;83.04
64961;SHT31;51487;52.266;10.542;2023-02-01T03:45:54;5.23;83.40
64961;SHT31;51487;52.266;10.542;2023-02-01T03:48:23;5.27;83.18
64961;SHT31;51487;52.266;10.542;2023-02-01T03:50:55;5.41;82.65
64961;SHT31;51487;52.266;10.542;2023-02-01T03:53:24;5.39;82.79
64961;SHT31;51487;52.266;10.542;2023-02-01T03:55:53;5.44;82.47
64961;SHT31;51487;52.266;10.542;2023-02-01T03:58:22;5.44;82.64
64961;SHT31;51487;52.266;10.542;2023-02-01T04:00:59;5.33;82.91
64961;SHT31;51487;52.266;10.542;2023-02-01T04:03:26;5.41;82.92
64961;SHT31;51487;52.266;10.542;2023-02-01T04:05:53;5.43;83.14
64961;SHT31;51487;52.266;10.542;2023-02-01T04:08:20;5.44;83.40
64961;SHT31;51487;52.266;10.542;2023-02-01T04:10:46;5.43;83.58
64961;SHT31;51487;52.266;10.542;2023-02-01T04:13:12;5.41;83.91
64961;SHT31;51487;52.266;10.542;2023-02-01T04:15:38;5.40;84.33
64961;SHT31;51487;52.266;10.542;2023-02-01T04:18:04;5.34;84.94
64961;SHT31;51487;52.266;10.542;2023-02-01T04:20:30;5.37;84.96
64961;SHT31;51487;52.266;10.542;2023-02-01T04:22:56;5.34;85.29
64961;SHT31;51487;52.266;10.542;2023-02-01T04:25:21;5.37;85.11
64961;SHT31;51487;52.266;10.542;2023-02-01T04:27:47;5.30;85.67
64961;SHT31;51487;52.266;10.542;2023-02-01T04:30:14;5.30;86.06
64961;SHT31;51487;52.266;10.542;2023-02-01T04:32:39;5.36;85.68
64961;SHT31;51487;52.266;10.542;2023-02-01T04:35:06;5.36;85.59
64961;SHT31;51487;52.266;10.542;2023-02-01T04:37:32;5.34;85.79
64961;SHT31;51487;52.266;10.542;2023-02-01T04:39:57;5.30;85.68
64961;SHT31;51487;52.266;10.542;2023-02-01T04:42:23;5.43;85.58
64961;SHT31;51487;52.266;10.542;2023-02-01T04:44:49;5.41;85.72
64961;SHT31;51487;52.266;10.542;2023-02-01T04:47:14;5.40;85.83
64961;SHT31;51487;52.266;10.542;2023-02-01T04:49:41;5.29;86.13
64961;SHT31;51487;52.266;10.542;2023-02-01T04:52:07;5.27;86.41
64961;SHT31;51487;52.266;10.542;2023-02-01T04:54:33;5.29;86.32
64961;SHT31;51487;52.266;10.542;2023-02-01T04:56:58;5.29;86.37
64961;SHT31;51487;52.266;10.542;2023-02-01T04:59:23;5.33;86.16
64961;SHT31;51487;52.266;10.542;2023-02-01T05:01:49;5.37;86.10
64961;SHT31;51487;52.266;10.542;2023-02-01T05:04:15;5.37;86.22
64961;SHT31;51487;52.266;10.542;2023-02-01T05:06:40;5.27;86.43
64961;SHT31;51487;52.266;10.542;2023-02-01T05:09:05;5.36;85.79
64961;SHT31;51487;52.266;10.542;2023-02-01T05:11:31;5.36;85.38
64961;SHT31;51487;52.266;10.542;2023-02-01T05:14:15;5.34;85.69
64961;SHT31;51487;52.266;10.542;2023-02-01T05:16:40;5.41;85.66
64961;SHT31;51487;52.266;10.542;2023-02-01T05:19:06;5.44;85.08
64961;SHT31;51487;52.266;10.542;2023-02-01T05:21:31;5.48;85.05
64961;SHT31;51487;52.266;10.542;2023-02-01T05:23:57;5.46;84.97
64961;SHT31;51487;52.266;10.542;2023-02-01T05:26:35;5.48;84.68
64961;SHT31;51487;52.266;10.542;2023-02-01T05:29:03;5.55;84.94
64961;SHT31;51487;52.266;10.542;2023-02-01T05:31:28;5.54;85.61
64961;SHT31;51487;52.266;10.542;2023-02-01T05:33:54;5.51;86.11
64961;SHT31;51487;52.266;10.542;2023-02-01T05:36:19;5.52;86.92
64961;SHT31;51487;52.266;10.542;2023-02-01T05:38:45;5.31;87.71
64961;SHT31;51487;52.266;10.542;2023-02-01T05:41:10;5.27;88.39
64961;SHT31;51487;52.266;10.542;2023-02-01T05:43:36;5.08;89.29
64961;SHT31;51487;52.266;10.542;2023-02-01T05:46:01;5.05;90.10
64961;SHT31;51487;52.266;10.542;2023-02-01T05:48:27;5.02;90.50
64961;SHT31;51487;52.266;10.542;2023-02-01T05:50:53;5.00;90.49
64961;SHT31;51487;52.266;10.542;2023-02-01T05:53:18;5.08;90.63
64961;SHT31;51487;52.266;10.542;2023-02-01T05:55:44;5.02;90.44
64961;SHT31;51487;52.266;10.542;2023-02-01T05:58:09;4.97;90.65
64961;SHT31;51487;52.266;10.542;2023-02-01T06:00:35;4.96;91.33
64961;SHT31;51487;52.266;10.542;2023-02-01T06:03:00;4.92;91.60
64961;SHT31;51487;52.266;10.542;2023-02-01T06:05:26;4.95;92.08
64961;SHT31;51487;52.266;10.542;2023-02-01T06:07:52;4.95;92.24
64961;SHT31;51487;52.266;10.542;2023-02-01T06:10:18;4.93;91.61
64961;SHT31;51487;52.266;10.542;2023-02-01T06:12:44;4.96;91.41
64961;SHT31;51487;52.266;10.542;2023-02-01T06:15:13;4.88;91.42
64961;SHT31;51487;52.266;10.542;2023-02-01T06:17:42;4.91;90.87
64961;SHT31;51487;52.266;10.542;2023-02-01T06:20:10;4.91;91.72
64961;SHT31;51487;52.266;10.542;2023-02-01T06:22:36;4.82;92.07
64961;SHT31;51487;52.266;10.542;2023-02-01T06:25:07;4.92;91.67
64961;SHT31;51487;52.266;10.542;2023-02-01T06:27:33;4.89;91.06
64961;SHT31;51487;52.266;10.542;2023-02-01T06:29:59;4.95;90.80
64961;SHT31;51487;52.266;10.542;2023-02-01T06:32:25;4.93;91.19
64961;SHT31;51487;52.266;10.542;2023-02-01T06:34:51;5.03;90.38
64961;SHT31;51487;52.266;10.542;2023-02-01T06:37:21;5.10;89.79
64961;SHT31;51487;52.266;10.542;2023-02-01T06:39:48;5.20;89.80
64961;SHT31;51487;52.266;10.542;2023-02-01T06:42:14;5.15;89.63
64961;SHT31;51487;52.266;10.542;2023-02-01T06:44:40;5.18;89.57
64961;SHT31;51487;52.266;10.542;2023-02-01T06:47:06;5.13;89.46
64961;SHT31;51487;52.266;10.542;2023-02-01T06:49:32;5.19;89.25
64961;SHT31;51487;52.266;10.542;2023-02-01T06:51:57;5.34;89.13
64961;SHT31;51487;52.266;10.542;2023-02-01T06:54:26;5.37;89.43
64961;SHT31;51487;52.266;10.542;2023-02-01T06:56:52;5.27;89.94
64961;SHT31;51487;52.266;10.542;2023-02-01T06:59:17;5.33;90.03
64961;SHT31;51487;52.266;10.542;2023-02-01T07:01:43;5.29;90.70
64961;SHT31;51487;52.266;10.542;2023-02-01T07:04:11;5.20;90.33
64961;SHT31;51487;52.266;10.542;2023-02-01T07:06:40;5.29;90.51
64961;SHT31;51487;52.266;10.542;2023-02-01T07:09:06;5.27;90.72
64961;SHT31;51487;52.266;10.542;2023-02-01T07:11:32;5.33;89.73
64961;SHT31;51487;52.266;10.542;2023-02-01T07:13:58;5.26;89.97
64961;SHT31;51487;52.266;10.542;2023-02-01T07:16:24;5.33;89.89
64961;SHT31;51487;52.266;10.542;2023-02-01T07:18:51;5.24;90.24
64961;SHT31;51487;52.266;10.542;2023-02-01T07:21:18;5.33;90.36
64961;SHT31;51487;52.266;10.542;2023-02-01T07:23:44;5.27;90.29
64961;SHT31;51487;52.266;10.542;2023-02-01T07:26:12;5.29;90.53
64961;SHT31;51487;52.266;10.542;2023-02-01T07:28:39;5.24;90.31
64961;SHT31;51487;52.266;10.542;2023-02-01T07:31:11;5.18;90.90
64961;SHT31;51487;52.266;10.542;2023-02-01T07:33:38;5.22;90.64
64961;SHT31;51487;52.266;10.542;2023-02-01T07:36:07;5.23;90.11
64961;SHT31;51487;52.266;10.542;2023-02-01T07:38:35;5.20;90.25
64961;SHT31;51487;52.266;10.542;2023-02-01T07:41:04;5.19;90.35
64961;SHT31;51487;52.266;10.542;2023-02-01T07:43:31;5.15;90.12
64961;SHT31;51487;52.266;10.542;2023-02-01T07:45:57;5.26;90.50
64961;SHT31;51487;52.266;10.542;2023-02-01T07:48:25;5.24;89.86
64961;SHT31;51487;52.266;10.542;2023-02-01T07:51:06;5.30;90.06
64961;SHT31;51487;52.266;10.542;2023-02-01T07:53:34;5.34;90.02
64961;SHT31;51487;52.266;10.542;2023-02-01T07:56:01;5.36;89.59
64961;SHT31;51487;52.266;10.542;2023-02-01T07:58:27;5.37;89.52
64961;SHT31;51487;52.266;10.542;2023-02-01T08:00:53;5.43;90.00
64961;SHT31;51487;52.266;10.542;2023-02-01T08:03:37;5.44;89.96
64961;SHT31;51487;52.266;10.542;2023-02-01T08:06:04;5.44;89.69
64961;SHT31;51487;52.266;10.542;2023-02-01T08:08:30;5.52;88.98
64961;SHT31;51487;52.266;10.542;2023-02-01T08:11:00;5.55;88.89
64961;SHT31;51487;52.266;10.542;2023-02-01T08:13:26;5.54;89.30
64961;SHT31;51487;52.266;10.542;2023-02-01T08:15:52;5.50;90.21
64961;SHT31;51487;52.266;10.542;2023-02-01T08:18:18;5.40;90.36
64961;SHT31;51487;52.266;10.542;2023-02-01T08:20:44;5.44;90.53
64961;SHT31;51487;52.266;10.542;2023-02-01T08:23:12;5.27;90.88
64961;SHT31;51487;52.266;10.542;2023-02-01T08:25:38;5.39;90.37
64961;SHT31;51487;52.266;10.542;2023-02-01T08:28:06;5.37;90.76
64961;SHT31;51487;52.266;10.542;2023-02-01T08:30:32;5.46;90.25
64961;SHT31;51487;52.266;10.542;2023-02-01T08:32:58;5.47;90.35
64961;SHT31;51487;52.266;10.542;2023-02-01T08:35:23;5.47;89.59
64961;SHT31;51487;52.266;10.542;2023-02-01T08:37:52;5.51;89.91
64961;SHT31;51487;52.266;10.542;2023-02-01T08:40:17;5.48;89.82
64961;SHT31;51487;52.266;10.542;2023-02-01T08:42:44;5.50;89.92
64961;SHT31;51487;52.266;10.542;2023-02-01T08:45:22;5.61;88.92
64961;SHT31;51487;52.266;10.542;2023-02-01T08:47:54;5.62;89.62
64961;SHT31;51487;52.266;10.542;2023-02-01T08:50:21;5.70;88.87
64961;SHT31;51487;52.266;10.542;2023-02-01T08:52:47;5.72;89.55
64961;SHT31;51487;52.266;10.542;2023-02-01T08:55:14;5.62;90.37
64961;SHT31;51487;52.266;10.542;2023-02-01T08:57:41;5.37;91.64
64961;SHT31;51487;52.266;10.542;2023-02-01T09:00:13;5.39;91.42
64961;SHT31;51487;52.266;10.542;2023-02-01T09:02:40;5.22;91.94
64961;SHT31;51487;52.266;10.542;2023-02-01T09:05:06;5.13;91.10
64961;SHT31;51487;52.266;10.542;2023-02-01T09:07:33;5.30;90.82
64961;SHT31;51487;52.266;10.542;2023-02-01T09:09:59;5.44;90.14
64961;SHT31;51487;52.266;10.542;2023-02-01T09:12:28;5.39;90.45
64961;SHT31;51487;52.266;10.542;2023-02-01T09:14:56;5.51;90.20
64961;SHT31;51487;52.266;10.542;2023-02-01T09:17:22;5.47;90.24
64961;SHT31;51487;52.266;10.542;2023-02-01T09:19:48;5.55;90.61
64961;SHT31;51487;52.266;10.542;2023-02-01T09:22:15;5.57;90.18
64961;SHT31;51487;52.266;10.542;2023-02-01T09:24:41;5.52;90.28
64961;SHT31;51487;52.266;10.542;2023-02-01T09:27:07;5.78;89.19
64961;SHT31;51487;52.266;10.542;2023-02-01T09:29:32;5.88;87.90
64961;SHT31;51487;52.266;10.542;2023-02-01T09:31:58;5.97;87.51
64961;SHT31;51487;52.266;10.542;2023-02-01T09:34:24;6.10;86.48
64961;SHT31;51487;52.266;10.542;2023-02-01T09:36:50;6.15;85.93
64961;SHT31;51487;52.266;10.542;2023-02-01T09:39:15;6.22;85.58
64961;SHT31;51487;52.266;10.542;2023-02-01T09:44:52;6.58;83.09
64961;SHT31;51487;52.266;10.542;2023-02-01T09:47:23;6.49;83.16
64961;SHT31;51487;52.266;10.542;2023-02-01T09:50:00;6.61;83.27
64961;SHT31;51487;52.266;10.542;2023-02-01T09:55:18;6.57;82.66
64961;SHT31;51487;52.266;10.542;2023-02-01T09:58:06;6.64;81.79
64961;SHT31;51487;52.266;10.542;2023-02-01T10:00:38;6.84;81.59
64961;SHT31;51487;52.266;10.542;2023-02-01T10:03:05;6.94;80.89
64961;SHT31;51487;52.266;10.542;2023-02-01T10:22:45;6.98;79.97
64961;SHT31;51487;52.266;10.542;2023-02-01T10:25:30;6.99;79.82
64961;SHT31;51487;52.266;10.542;2023-02-01T10:28:00;6.98;80.79
64961;SHT31;51487;52.266;10.542;2023-02-01T10:30:37;6.95;80.09
64961;SHT31;51487;52.266;10.542;2023-02-01T10:33:41;6.97;80.18
64961;SHT31;51487;52.266;10.542;2023-02-01T10:36:35;6.98;80.57
64961;SHT31;51487;52.266;10.542;2023-02-01T10:39:05;7.08;80.73
64961;SHT31;51487;52.266;10.542;2023-02-01T10:41:36;7.28;80.30
64961;SHT31;51487;52.266;10.542;2023-02-01T10:44:13;7.49;78.92
64961;SHT31;51487;52.266;10.542;2023-02-01T10:46:39;7.36;79.89
64961;SHT31;51487;52.266;10.542;2023-02-01T10:49:16;7.39;79.71
64961;SHT31;51487;52.266;10.542;2023-02-01T10:52:09;7.43;79.15
64961;SHT31;51487;52.266;10.542;2023-02-01T10:54:38;7.47;78.78
64961;SHT31;51487;52.266;10.542;2023-02-01T10:57:24;7.53;78.83
64961;SHT31;51487;52.266;10.542;2023-02-01T10:59:52;7.36;77.84
64961;SHT31;51487;52.266;10.542;2023-02-01T11:02:41;7.32;78.88
64961;SHT31;51487;52.266;10.542;2023-02-01T11:05:10;7.38;78.99
64961;SHT31;51487;52.266;10.542;2023-02-01T11:07:39;7.40;78.79
64961;SHT31;51487;52.266;10.542;2023-02-01T11:10:42;7.42;78.92
64961;SHT31;51487;52.266;10.542;2023-02-01T11:13:17;7.39;78.99
64961;SHT31;51487;52.266;10.542;2023-02-01T11:15:45;7.45;79.46
64961;SHT31;51487;52.266;10.542;2023-02-01T11:18:19;7.36;78.86
64961;SHT31;51487;52.266;10.542;2023-02-01T11:20:47;7.28;79.42
64961;SHT31;51487;52.266;10.542;2023-02-01T11:23:22;7.25;79.56
64961;SHT31;51487;52.266;10.542;2023-02-01T11:26:01;7.23;78.75
64961;SHT31;51487;52.266;10.542;2023-02-01T11:28:34;7.22;79.57
64961;SHT31;51487;52.266;10.542;2023-02-01T11:31:09;7.14;79.96
64961;SHT31;51487;52.266;10.542;2023-02-01T11:33:38;7.26;79.29
64961;SHT31;51487;52.266;10.542;2023-02-01T11:36:32;7.18;79.44
64961;SHT31;51487;52.266;10.542;2023-02-01T11:39:23;7.15;80.02
64961;SHT31;51487;52.266;10.542;2023-02-01T11:44:40;7.33;79.72
64961;SHT31;51487;52.266;10.542;2023-02-01T11:47:39;7.36;79.20
64961;SHT31;51487;52.266;10.542;2023-02-01T11:50:19;7.36;78.83
64961;SHT31;51487;52.266;10.542;2023-02-01T11:56:09;7.47;78.20
64961;SHT31;51487;52.266;10.542;2023-02-01T11:59:02;7.65;77.70
64961;SHT31;51487;52.266;10.542;2023-02-01T12:07:31;7.66;77.28
64961;SHT31;51487;52.266;10.542;2023-02-01T12:13:29;7.33;77.67
64961;SHT31;51487;52.266;10.542;2023-02-01T12:18:52;7.59;77.32
64961;SHT31;51487;52.266;10.542;2023-02-01T12:24:25;7.67;76.86
64961;SHT31;51487;52.266;10.542;2023-02-01T12:36:21;7.67;77.18
64961;SHT31;51487;52.266;10.542;2023-02-01T12:47:32;7.20;78.61
64961;SHT31;51487;52.266;10.542;2023-02-01T12:50:27;7.07;79.71
64961;SHT31;51487;52.266;10.542;2023-02-01T12:55:52;7.07;79.64
64961;SHT31;51487;52.266;10.542;2023-02-01T12:58:35;7.07;80.08
64961;SHT31;51487;52.266;10.542;2023-02-01T13:01:14;6.94;80.23
64961;SHT31;51487;52.266;10.542;2023-02-01T13:04:04;6.89;81.54
64961;SHT31;51487;52.266;10.542;2023-02-01T13:06:39;6.80;82.39
64961;SHT31;51487;52.266;10.542;2023-02-01T13:09:27;6.87;82.56
64961;SHT31;51487;52.266;10.542;2023-02-01T13:12:00;6.67;83.70
64961;SHT31;51487;52.266;10.542;2023-02-01T13:14:42;6.46;83.28
64961;SHT31;51487;52.266;10.542;2023-02-01T13:17:20;6.36;83.88
64961;SHT31;51487;52.266;10.542;2023-02-01T13:19:53;6.30;84.76
64961;SHT31;51487;52.266;10.542;2023-02-01T13:22:26;6.25;86.17
64961;SHT31;51487;52.266;10.542;2023-02-01T13:25:07;6.10;87.15
64961;SHT31;51487;52.266;10.542;2023-02-01T13:27:37;6.10;87.04
64961;SHT31;51487;52.266;10.542;2023-02-01T13:30:16;6.12;85.65
64961;SHT31;51487;52.266;10.542;2023-02-01T13:33:26;6.12;86.16
64961;SHT31;51487;52.266;10.542;2023-02-01T13:36:33;6.08;86.38
64961;SHT31;51487;52.266;10.542;2023-02-01T13:39:34;6.08;86.35
64961;SHT31;51487;52.266;10.542;2023-02-01T13:42:27;6.08;87.60
64961;SHT31;51487;52.266;10.542;2023-02-01T13:45:00;6.08;87.73
64961;SHT31;51487;52.266;10.542;2023-02-01T13:47:34;5.95;88.36
64961;SHT31;51487;52.266;10.542;2023-02-01T13:50:18;5.98;88.80
64961;SHT31;51487;52.266;10.542;2023-02-01T13:52:52;5.87;90.44
64961;SHT31;51487;52.266;10.542;2023-02-01T13:57:50;5.51;93.25
64961;SHT31;51487;52.266;10.542;2023-02-01T14:00:32;5.43;93.68
64961;SHT31;51487;52.266;10.542;2023-02-01T14:03:11;5.22;94.05
64961;SHT31;51487;52.266;10.542;2023-02-01T14:10:59;4.50;92.97
64961;SHT31;51487;52.266;10.542;2023-02-01T14:13:41;4.21;93.83
64961;SHT31;51487;52.266;10.542;2023-02-01T14:16:16;4.00;93.47
64961;SHT31;51487;52.266;10.542;2023-02-01T14:21:32;3.94;94.49
64961;SHT31;51487;52.266;10.542;2023-02-01T14:24:02;3.94;94.17
64961;SHT31;51487;52.266;10.542;2023-02-01T14:26:49;4.09;93.47
64961;SHT31;51487;52.266;10.542;2023-02-01T14:32:03;3.93;92.16
64961;SHT31;51487;52.266;10.542;2023-02-01T14:34:52;3.86;92.19
64961;SHT31;51487;52.266;10.542;2023-02-01T14:39:49;3.68;92.71
64961;SHT31;51487;52.266;10.542;2023-02-01T14:47:50;3.69;93.13
64961;SHT31;51487;52.266;10.542;2023-02-01T14:53:11;3.65;92.81
64961;SHT31;51487;52.266;10.542;2023-02-01T14:58:58;3.72;92.69
64961;SHT31;51487;52.266;10.542;2023-02-01T15:01:34;3.78;93.05
64961;SHT31;51487;52.266;10.542;2023-02-01T15:04:13;3.69;93.32
64961;SHT31;51487;52.266;10.542;2023-02-01T15:06:54;3.62;93.38
64961;SHT31;51487;52.266;10.542;2023-02-01T15:09:32;3.65;93.78
64961;SHT31;51487;52.266;10.542;2023-02-01T15:12:27;3.52;93.75
64961;SHT31;51487;52.266;10.542;2023-02-01T15:17:41;3.54;93.50
64961;SHT31;51487;52.266;10.542;2023-02-01T15:20:33;3.54;93.32
64961;SHT31;51487;52.266;10.542;2023-02-01T15:23:05;3.55;93.85
64961;SHT31;51487;52.266;10.542;2023-02-01T15:25:38;3.55;93.09
64961;SHT31;51487;52.266;10.542;2023-02-01T15:28:05;3.46;93.51
64961;SHT31;51487;52.266;10.542;2023-02-01T15:30:34;3.30;93.50
64961;SHT31;51487;52.266;10.542;2023-02-01T15:38:44;3.50;93.21
64961;SHT31;51487;52.266;10.542;2023-02-01T15:41:18;3.42;93.51
64961;SHT31;51487;52.266;10.542;2023-02-01T15:46:44;3.31;93.47
64961;SHT31;51487;52.266;10.542;2023-02-01T15:49:30;3.30;93.61
64961;SHT31;51487;52.266;10.542;2023-02-01T15:51:59;3.25;93.27
64961;SHT31;51487;52.266;10.542;2023-02-01T15:54:46;3.23;93.47
64961;SHT31;51487;52.266;10.542;2023-02-01T15:57:22;3.25;93.28
64961;SHT31;51487;52.266;10.542;2023-02-01T15:59:57;3.28;93.24
64961;SHT31;51487;52.266;10.542;2023-02-01T16:02:28;3.30;93.30
64961;SHT31;51487;52.266;10.542;2023-02-01T16:04:54;3.24;93.25
64961;SHT31;51487;52.266;10.542;2023-02-01T16:07:30;3.35;92.77
64961;SHT31;51487;52.266;10.542;2023-02-01T16:09:59;3.39;92.51
64961;SHT31;51487;52.266;10.542;2023-02-01T16:12:46;3.36;92.87
64961;SHT31;51487;52.266;10.542;2023-02-01T16:15:12;3.36;92.91
64961;SHT31;51487;52.266;10.542;2023-02-01T16:17:38;3.42;92.51
64961;SHT31;51487;52.266;10.542;2023-02-01T16:20:04;3.48;92.80
64961;SHT31;51487;52.266;10.542;2023-02-01T16:22:30;3.52;92.87
64961;SHT31;51487;52.266;10.542;2023-02-01T16:24:56;3.54;92.79
64961;SHT31;51487;52.266;10.542;2023-02-01T16:27:22;3.59;93.15
64961;SHT31;51487;52.266;10.542;2023-02-01T16:29:48;3.65;93.07
64961;SHT31;51487;52.266;10.542;2023-02-01T16:32:20;3.63;93.06
64961;SHT31;51487;52.266;10.542;2023-02-01T16:34:47;3.71;92.83
64961;SHT31;51487;52.266;10.542;2023-02-01T16:37:21;3.71;92.91
64961;SHT31;51487;52.266;10.542;2023-02-01T16:39:47;3.68;93.10
64961;SHT31;51487;52.266;10.542;2023-02-01T16:42:14;3.73;92.97
64961;SHT31;51487;52.266;10.542;2023-02-01T16:44:41;3.81;92.95
64961;SHT31;51487;52.266;10.542;2023-02-01T16:47:21;3.81;93.13
64961;SHT31;51487;52.266;10.542;2023-02-01T16:49:47;3.83;92.79
64961;SHT31;51487;52.266;10.542;2023-02-01T16:52:20;3.86;92.91
64961;SHT31;51487;52.266;10.542;2023-02-01T16:54:46;3.81;92.59
64961;SHT31;51487;52.266;10.542;2023-02-01T16:57:15;3.79;92.64
64961;SHT31;51487;52.266;10.542;2023-02-01T16:59:42;3.79;92.71
64961;SHT31;51487;52.266;10.542;2023-02-01T17:02:14;3.73;92.86
64961;SHT31;51487;52.266;10.542;2023-02-01T17:04:41;3.81;92.77
64961;SHT31;51487;52.266;10.542;2023-02-01T17:07:19;3.82;92.39
64961;SHT31;51487;52.266;10.542;2023-02-01T17:09:46;3.85;92.04
64961;SHT31;51487;52.266;10.542;2023-02-01T17:12:25;3.87;91.70
64961;SHT31;51487;52.266;10.542;2023-02-01T17:14:51;3.97;91.62
64961;SHT31;51487;52.266;10.542;2023-02-01T17:17:19;3.97;91.52
64961;SHT31;51487;52.266;10.542;2023-02-01T17:19:51;4.03;91.56
64961;SHT31;51487;52.266;10.542;2023-02-01T17:22:19;4.03;91.52
64961;SHT31;51487;52.266;10.542;2023-02-01T17:24:46;4.16;91.29
64961;SHT31;51487;52.266;10.542;2023-02-01T17:27:12;4.21;91.29
64961;SHT31;51487;52.266;10.542;2023-02-01T17:29:37;4.25;90.75
64961;SHT31;51487;52.266;10.542;2023-02-01T17:32:03;4.34;90.37
64961;SHT31;51487;52.266;10.542;2023-02-01T17:34:30;4.37;90.29
64961;SHT31;51487;52.266;10.542;2023-02-01T17:36:56;4.47;90.12
64961;SHT31;51487;52.266;10.542;2023-02-01T17:39:21;4.52;89.88
64961;SHT31;51487;52.266;10.542;2023-02-01T17:42:10;4.65;89.68
64961;SHT31;51487;52.266;10.542;2023-02-01T17:44:36;4.64;89.35
64961;SHT31;51487;52.266;10.542;2023-02-01T17:47:02;4.79;89.01
64961;SHT31;51487;52.266;10.542;2023-02-01T17:49:28;4.79;88.52
64961;SHT31;51487;52.266;10.542;2023-02-01T17:51:55;4.92;88.91
64961;SHT31;51487;52.266;10.542;2023-02-01T17:54:21;4.95;89.14
64961;SHT31;51487;52.266;10.542;2023-02-01T17:56:47;4.81;89.26
64961;SHT31;51487;52.266;10.542;2023-02-01T17:59:14;4.91;89.04
64961;SHT31;51487;52.266;10.542;2023-02-01T18:01:40;4.81;88.91
64961;SHT31;51487;52.266;10.542;2023-02-01T18:04:11;4.88;89.25
64961;SHT31;51487;52.266;10.542;2023-02-01T18:06:37;4.82;88.77
64961;SHT31;51487;52.266;10.542;2023-02-01T18:09:02;5.97;90.82
64961;SHT31;51487;52.266;10.542;2023-02-01T18:11:28;5.61;86.48
64961;SHT31;51487;52.266;10.542;2023-02-01T18:13:57;5.44;86.04